createdAt,value
2018-07-12T00:00:31.650Z,33.51
2018-07-12T00:01:31.645Z,33.41
2018-07-12T00:03:24.562Z,33.51
2018-07-12T00:04:24.562Z,33.51
2018-07-12T00:06:19.176Z,33.89
2018-07-12T00:07:19.198Z,33.51
2018-07-12T00:09:12.093Z,33.41
2018-07-12T00:10:12.090Z,33.60
2018-07-12T00:12:05.007Z,33.41
2018-07-12T00:13:05.010Z,33.41
2018-07-12T00:15:10.679Z,33.31
2018-07-12T00:16:10.680Z,33.80
2018-07-12T00:18:03.668Z,33.31
2018-07-12T00:19:03.623Z,33.31
2018-07-12T00:20:57.399Z,33.41
2018-07-12T00:21:57.395Z,33.12
2018-07-12T00:24:03.101Z,33.80
2018-07-12T00:25:03.066Z,33.22
2018-07-12T00:26:55.985Z,33.31
2018-07-12T00:27:55.983Z,33.22
2018-07-12T00:29:50.597Z,33.12
2018-07-12T00:30:50.597Z,33.31
2018-07-12T00:32:56.255Z,33.31
2018-07-12T00:33:56.269Z,33.70
2018-07-12T00:35:49.186Z,33.22
2018-07-12T00:36:49.187Z,33.22
2018-07-12T00:38:54.858Z,33.31
2018-07-12T00:39:54.857Z,33.31
2018-07-12T00:41:47.776Z,33.12
2018-07-12T00:42:47.775Z,33.22
2018-07-12T00:44:42.389Z,33.31
2018-07-12T00:45:42.388Z,33.31
2018-07-12T00:47:48.061Z,33.80
2018-07-12T00:48:48.060Z,33.31
2018-07-12T00:50:40.978Z,33.70
2018-07-12T00:51:40.976Z,33.22
2018-07-12T00:53:46.650Z,33.22
2018-07-12T00:54:46.647Z,33.31
2018-07-12T00:56:39.586Z,33.31
2018-07-12T00:57:39.565Z,33.22
2018-07-12T00:59:33.330Z,33.31
2018-07-12T01:00:33.333Z,33.31
2018-07-12T01:02:26.247Z,33.22
2018-07-12T01:03:26.244Z,33.31
2018-07-12T01:05:19.162Z,33.31
2018-07-12T01:06:19.161Z,33.22
2018-07-12T01:08:12.306Z,33.31
2018-07-12T01:09:12.306Z,33.31
2018-07-12T01:11:05.222Z,33.31
2018-07-12T01:12:05.222Z,33.41
2018-07-12T01:14:10.931Z,33.70
2018-07-12T01:15:10.893Z,33.12
2018-07-12T01:17:03.813Z,33.22
2018-07-12T01:18:03.811Z,33.31
2018-07-12T01:19:58.412Z,33.31
2018-07-12T01:20:58.424Z,33.31
2018-07-12T01:23:04.121Z,33.02
2018-07-12T01:24:04.103Z,33.02
2018-07-12T01:25:57.020Z,32.82
2018-07-12T01:26:57.020Z,33.12
2018-07-12T01:28:51.643Z,33.41
2018-07-12T01:29:51.633Z,33.02
2018-07-12T01:31:57.318Z,33.31
2018-07-12T01:32:57.304Z,33.31
2018-07-12T01:34:50.221Z,33.22
2018-07-12T01:35:50.221Z,33.22
2018-07-12T01:37:55.892Z,32.92
2018-07-12T01:38:55.899Z,32.64
2018-07-12T01:40:49.657Z,32.82
2018-07-12T01:41:49.656Z,33.41
2018-07-12T01:43:43.669Z,33.02
2018-07-12T01:44:43.421Z,33.31
2018-07-12T01:46:49.082Z,33.12
2018-07-12T01:47:49.094Z,33.02
2018-07-12T01:49:42.013Z,32.34
2018-07-12T01:50:42.010Z,33.02
2018-07-12T01:52:47.683Z,33.02
2018-07-12T01:53:47.680Z,33.12
2018-07-12T01:55:40.601Z,33.02
2018-07-12T01:56:40.600Z,32.92
2018-07-12T01:58:34.365Z,32.92
2018-07-12T01:59:34.364Z,32.82
2018-07-12T02:01:27.281Z,32.82
2018-07-12T02:02:27.281Z,32.82
2018-07-12T02:04:20.200Z,33.02
2018-07-12T02:05:20.197Z,33.02
2018-07-12T02:07:25.870Z,32.92
2018-07-12T02:08:25.867Z,32.75
2018-07-12T02:10:18.840Z,32.82
2018-07-12T02:11:18.784Z,32.92
2018-07-12T02:13:24.458Z,33.12
2018-07-12T02:14:24.457Z,33.02
2018-07-12T02:16:17.395Z,32.92
2018-07-12T02:17:17.395Z,32.82
2018-07-12T02:19:11.988Z,32.73
2018-07-12T02:20:11.988Z,32.54
2018-07-12T02:22:17.662Z,32.75
2018-07-12T02:23:17.659Z,32.44
2018-07-12T02:25:10.578Z,32.54
2018-07-12T02:26:10.631Z,32.64
2018-07-12T02:28:16.249Z,32.82
2018-07-12T02:29:16.248Z,32.56
2018-07-12T02:31:09.167Z,32.54
2018-07-12T02:32:09.208Z,32.64
2018-07-12T02:34:14.839Z,32.56
2018-07-12T02:35:14.868Z,32.65
2018-07-12T02:37:07.756Z,32.65
2018-07-12T02:38:07.793Z,32.46
2018-07-12T02:40:00.676Z,32.46
2018-07-12T02:41:00.672Z,32.56
2018-07-12T02:42:53.815Z,32.56
2018-07-12T02:43:53.815Z,32.36
2018-07-12T02:45:47.808Z,32.46
2018-07-12T02:46:47.843Z,32.75
2018-07-12T02:48:40.724Z,32.56
2018-07-12T02:49:40.733Z,32.46
2018-07-12T02:51:33.627Z,32.26
2018-07-12T02:52:33.641Z,32.56
2018-07-12T02:54:26.557Z,31.97
2018-07-12T02:55:26.560Z,31.97
2018-07-12T02:57:32.230Z,31.89
2018-07-12T02:58:32.228Z,32.09
2018-07-12T03:00:26.026Z,31.89
2018-07-12T03:01:25.994Z,31.60
2018-07-12T03:03:31.709Z,31.70
2018-07-12T03:04:31.667Z,31.79
2018-07-12T03:06:25.432Z,31.79
2018-07-12T03:07:25.431Z,31.70
2018-07-12T03:09:18.348Z,31.99
2018-07-12T03:10:18.348Z,31.99
2018-07-12T03:12:24.021Z,31.89
2018-07-12T03:13:24.020Z,32.09
2018-07-12T03:15:17.788Z,31.89
2018-07-12T03:16:17.787Z,32.18
2018-07-12T03:18:12.400Z,32.18
2018-07-12T03:19:12.400Z,32.00
2018-07-12T03:21:18.099Z,31.62
2018-07-12T03:22:18.072Z,31.81
2018-07-12T03:24:10.976Z,31.70
2018-07-12T03:25:11.025Z,31.62
2018-07-12T03:27:05.584Z,31.81
2018-07-12T03:28:05.603Z,31.71
2018-07-12T03:29:58.524Z,31.71
2018-07-12T03:30:58.522Z,31.81
2018-07-12T03:32:51.439Z,32.00
2018-07-12T03:33:51.437Z,32.18
2018-07-12T03:35:44.356Z,32.20
2018-07-12T03:36:44.355Z,32.10
2018-07-12T03:38:37.251Z,32.20
2018-07-12T03:39:37.273Z,32.29
2018-07-12T03:41:31.887Z,31.81
2018-07-12T03:42:31.887Z,31.91
2018-07-12T03:44:24.806Z,31.79
2018-07-12T03:45:24.805Z,31.81
2018-07-12T03:47:18.557Z,32.29
2018-07-12T03:48:18.570Z,31.81
2018-07-12T03:50:11.466Z,31.81
2018-07-12T03:51:11.487Z,31.81
2018-07-12T03:53:04.391Z,32.20
2018-07-12T03:54:04.405Z,32.29
2018-07-12T03:55:57.312Z,32.20
2018-07-12T03:56:57.334Z,32.20
2018-07-12T03:58:50.250Z,31.91
2018-07-12T03:59:50.253Z,31.81
2018-07-12T04:01:55.902Z,31.71
2018-07-12T04:02:55.923Z,31.81
2018-07-12T04:04:48.844Z,31.81
2018-07-12T04:05:48.842Z,31.71
2018-07-12T04:07:43.497Z,31.82
2018-07-12T04:08:43.456Z,31.62
2018-07-12T04:10:49.540Z,31.71
2018-07-12T04:11:49.129Z,31.53
2018-07-12T04:13:42.049Z,31.53
2018-07-12T04:14:42.048Z,31.44
2018-07-12T04:16:36.662Z,31.63
2018-07-12T04:17:36.662Z,31.73
2018-07-12T04:19:29.559Z,31.53
2018-07-12T04:20:29.581Z,31.92
2018-07-12T04:22:22.497Z,31.44
2018-07-12T04:23:22.518Z,31.55
2018-07-12T04:25:40.911Z,31.35
2018-07-12T04:26:40.926Z,31.16
2018-07-12T04:28:33.845Z,31.35
2018-07-12T04:29:33.845Z,31.35
2018-07-12T04:31:27.611Z,31.35
2018-07-12T04:32:27.613Z,31.35
2018-07-12T04:34:20.529Z,31.35
2018-07-12T04:35:20.530Z,31.63
2018-07-12T04:37:13.450Z,31.84
2018-07-12T04:38:13.448Z,31.65
2018-07-12T04:40:19.125Z,31.84
2018-07-12T04:41:19.120Z,31.84
2018-07-12T04:43:23.171Z,31.45
2018-07-12T04:44:23.138Z,31.74
2018-07-12T04:46:16.035Z,31.45
2018-07-12T04:47:16.060Z,31.45
2018-07-12T04:49:09.007Z,31.55
2018-07-12T04:50:08.974Z,31.55
2018-07-12T04:52:01.893Z,31.94
2018-07-12T04:53:01.892Z,31.55
2018-07-12T04:55:07.566Z,31.94
2018-07-12T04:56:07.566Z,31.65
2018-07-12T04:58:00.486Z,31.63
2018-07-12T04:59:00.485Z,31.55
2018-07-12T05:00:55.103Z,31.55
2018-07-12T05:01:55.100Z,31.73
2018-07-12T05:03:48.004Z,31.82
2018-07-12T05:04:48.018Z,31.82
2018-07-12T05:06:41.023Z,31.53
2018-07-12T05:07:40.936Z,31.73
2018-07-12T05:09:46.629Z,31.92
2018-07-12T05:10:46.622Z,31.53
2018-07-12T05:12:39.515Z,31.35
2018-07-12T05:13:39.529Z,31.35
2018-07-12T05:15:34.157Z,31.84
2018-07-12T05:16:34.148Z,31.65
2018-07-12T05:18:27.061Z,31.45
2018-07-12T05:19:27.061Z,31.26
2018-07-12T05:21:19.963Z,31.35
2018-07-12T05:22:19.980Z,31.26
2018-07-12T05:24:25.654Z,31.45
2018-07-12T05:25:25.653Z,31.35
2018-07-12T05:27:19.432Z,31.26
2018-07-12T05:28:19.420Z,31.35
2018-07-12T05:30:24.257Z,31.16
2018-07-12T05:31:24.278Z,31.35
2018-07-12T05:33:29.958Z,31.35
2018-07-12T05:34:29.951Z,31.26
2018-07-12T05:36:22.888Z,31.35
2018-07-12T05:37:22.892Z,31.16
2018-07-12T05:39:16.807Z,31.26
2018-07-12T05:40:16.702Z,31.16
2018-07-12T05:42:09.652Z,31.45
2018-07-12T05:43:09.646Z,31.26
2018-07-12T05:45:03.413Z,31.16
2018-07-12T05:46:03.413Z,31.16
2018-07-12T05:48:09.135Z,31.35
2018-07-12T05:49:09.086Z,31.07
2018-07-12T05:51:02.009Z,31.26
2018-07-12T05:52:02.032Z,31.26
2018-07-12T05:53:54.947Z,31.35
2018-07-12T05:54:54.948Z,31.26
2018-07-12T05:56:47.866Z,31.26
2018-07-12T05:57:47.866Z,31.35
2018-07-12T05:59:40.784Z,31.26
2018-07-12T06:00:40.785Z,31.35
2018-07-12T06:03:00.967Z,31.35
2018-07-12T06:04:00.910Z,31.26
2018-07-12T06:06:06.584Z,31.35
2018-07-12T06:07:06.584Z,31.35
2018-07-12T06:09:00.351Z,31.35
2018-07-12T06:10:00.355Z,31.16
2018-07-12T06:11:54.119Z,31.16
2018-07-12T06:12:54.118Z,31.16
2018-07-12T06:14:47.015Z,31.07
2018-07-12T06:15:47.072Z,31.07
2018-07-12T06:17:39.954Z,31.26
2018-07-12T06:18:39.957Z,31.26
2018-07-12T06:20:45.667Z,31.07
2018-07-12T06:21:45.666Z,31.16
2018-07-12T06:23:40.280Z,31.16
2018-07-12T06:24:40.322Z,31.07
2018-07-12T06:26:33.201Z,31.16
2018-07-12T06:27:33.204Z,30.97
2018-07-12T06:29:27.817Z,31.16
2018-07-12T06:30:27.818Z,31.16
2018-07-12T06:32:33.469Z,31.16
2018-07-12T06:33:33.489Z,31.26
2018-07-12T06:35:27.256Z,31.26
2018-07-12T06:36:27.276Z,31.26
2018-07-12T06:38:21.022Z,31.26
2018-07-12T06:39:21.022Z,31.26
2018-07-12T06:41:26.679Z,31.35
2018-07-12T06:42:26.696Z,31.35
2018-07-12T06:44:19.616Z,31.45
2018-07-12T06:45:19.615Z,31.26
2018-07-12T06:47:14.230Z,31.45
2018-07-12T06:48:14.231Z,31.45
2018-07-12T06:50:19.905Z,31.35
2018-07-12T06:51:19.904Z,31.35
2018-07-12T06:53:12.832Z,31.35
2018-07-12T06:54:12.823Z,31.35
2018-07-12T06:56:18.496Z,31.16
2018-07-12T06:57:18.497Z,30.97
2018-07-12T06:59:11.416Z,31.45
2018-07-12T07:00:11.417Z,31.26
2018-07-12T07:02:05.412Z,31.35
2018-07-12T07:03:05.412Z,31.16
2018-07-12T07:05:00.028Z,31.26
2018-07-12T07:06:00.080Z,31.07
2018-07-12T07:07:52.944Z,31.16
2018-07-12T07:08:52.944Z,31.16
2018-07-12T07:10:45.888Z,30.97
2018-07-12T07:11:45.897Z,31.16
2018-07-12T07:13:51.550Z,31.16
2018-07-12T07:14:51.560Z,30.97
2018-07-12T07:16:44.469Z,31.07
2018-07-12T07:17:44.467Z,31.07
2018-07-12T07:19:39.063Z,31.07
2018-07-12T07:20:39.084Z,31.16
2018-07-12T07:22:44.757Z,30.87
2018-07-12T07:23:44.757Z,31.07
2018-07-12T07:25:38.587Z,30.87
2018-07-12T07:26:38.524Z,30.77
2018-07-12T07:28:33.140Z,30.87
2018-07-12T07:29:33.140Z,30.87
2018-07-12T07:31:38.814Z,30.95
2018-07-12T07:32:38.814Z,30.97
2018-07-12T07:34:31.733Z,30.97
2018-07-12T07:35:31.772Z,30.87
2018-07-12T07:37:25.498Z,30.87
2018-07-12T07:38:25.499Z,30.87
2018-07-12T07:40:31.151Z,30.87
2018-07-12T07:41:31.173Z,30.85
2018-07-12T07:43:24.118Z,30.77
2018-07-12T07:44:24.150Z,30.87
2018-07-12T07:46:18.710Z,30.76
2018-07-12T07:47:18.709Z,30.87
2018-07-12T07:49:11.648Z,30.95
2018-07-12T07:50:11.628Z,30.95
2018-07-12T07:52:04.529Z,31.07
2018-07-12T07:53:04.550Z,31.07
2018-07-12T07:55:10.223Z,30.76
2018-07-12T07:56:10.222Z,30.77
2018-07-12T07:58:03.141Z,30.95
2018-07-12T07:59:03.141Z,30.97
2018-07-12T08:01:08.858Z,31.07
2018-07-12T08:02:08.857Z,30.77
2018-07-12T08:04:03.473Z,30.68
2018-07-12T08:05:03.473Z,30.68
2018-07-12T08:07:09.146Z,30.97
2018-07-12T08:08:09.147Z,30.66
2018-07-12T08:10:02.915Z,30.87
2018-07-12T08:11:02.914Z,30.87
2018-07-12T08:12:56.929Z,30.77
2018-07-12T08:13:56.909Z,30.68
2018-07-12T08:15:51.501Z,30.58
2018-07-12T08:16:51.526Z,30.68
2018-07-12T08:18:44.469Z,30.68
2018-07-12T08:19:44.441Z,30.68
2018-07-12T08:21:37.380Z,30.66
2018-07-12T08:22:37.358Z,30.95
2018-07-12T08:24:43.054Z,30.77
2018-07-12T08:25:43.032Z,30.97
2018-07-12T08:27:36.224Z,30.97
2018-07-12T08:28:35.952Z,30.97
2018-07-12T08:30:30.566Z,30.77
2018-07-12T08:31:30.565Z,30.68
2018-07-12T08:33:23.528Z,30.97
2018-07-12T08:34:23.483Z,30.77
2018-07-12T08:36:16.469Z,31.07
2018-07-12T08:37:16.404Z,30.87
2018-07-12T08:39:09.318Z,30.97
2018-07-12T08:40:09.318Z,30.87
2018-07-12T08:42:02.280Z,30.87
2018-07-12T08:43:02.250Z,31.05
2018-07-12T08:45:09.617Z,30.97
2018-07-12T08:46:09.682Z,30.85
2018-07-12T08:48:29.783Z,30.87
2018-07-12T08:49:29.755Z,30.97
2018-07-12T08:51:48.170Z,30.77
2018-07-12T08:52:48.170Z,30.77
2018-07-12T08:54:41.130Z,30.95
2018-07-12T08:55:41.109Z,31.07
2018-07-12T08:57:34.835Z,31.05
2018-07-12T08:58:34.855Z,30.97
2018-07-12T09:00:27.776Z,30.97
2018-07-12T09:01:27.773Z,31.16
2018-07-12T09:03:20.695Z,31.05
2018-07-12T09:04:20.691Z,31.07
2018-07-12T09:06:39.130Z,30.76
2018-07-12T09:07:39.118Z,30.95
2018-07-12T09:09:32.883Z,31.05
2018-07-12T09:10:32.886Z,30.95
2018-07-12T09:12:26.651Z,30.85
2018-07-12T09:13:26.650Z,31.16
2018-07-12T09:15:32.350Z,31.07
2018-07-12T09:16:32.324Z,31.35
2018-07-12T09:18:25.242Z,31.05
2018-07-12T09:19:25.243Z,31.05
2018-07-12T09:21:19.857Z,31.07
2018-07-12T09:22:19.857Z,31.15
2018-07-12T09:24:12.775Z,31.05
2018-07-12T09:25:12.774Z,30.95
2018-07-12T09:27:05.694Z,31.05
2018-07-12T09:28:05.692Z,30.95
2018-07-12T09:30:11.365Z,31.05
2018-07-12T09:31:11.370Z,31.05
2018-07-12T09:33:04.286Z,31.05
2018-07-12T09:34:04.285Z,31.05
2018-07-12T09:35:58.920Z,31.15
2018-07-12T09:36:58.902Z,31.15
2018-07-12T09:38:51.817Z,31.15
2018-07-12T09:39:51.817Z,31.05
2018-07-12T09:41:44.765Z,31.05
2018-07-12T09:42:44.735Z,30.85
2018-07-12T09:44:50.409Z,31.07
2018-07-12T09:45:50.452Z,31.05
2018-07-12T09:47:43.327Z,31.05
2018-07-12T09:48:43.330Z,31.05
2018-07-12T09:50:37.941Z,30.95
2018-07-12T09:51:37.942Z,31.15
2018-07-12T09:53:43.595Z,30.85
2018-07-12T09:54:43.636Z,31.05
2018-07-12T09:56:36.631Z,30.97
2018-07-12T09:57:36.573Z,30.85
2018-07-12T09:59:29.469Z,30.76
2018-07-12T10:00:29.491Z,30.85
2018-07-12T10:02:35.166Z,30.95
2018-07-12T10:03:35.166Z,30.85
2018-07-12T10:05:28.935Z,30.95
2018-07-12T10:06:28.933Z,30.95
2018-07-12T10:08:22.702Z,30.95
2018-07-12T10:09:22.703Z,30.87
2018-07-12T10:11:15.617Z,30.76
2018-07-12T10:12:15.616Z,30.85
2018-07-12T10:14:08.535Z,30.95
2018-07-12T10:15:08.535Z,30.77
2018-07-12T10:17:26.167Z,30.66
2018-07-12T10:18:26.145Z,30.66
2018-07-12T10:20:33.517Z,30.37
2018-07-12T10:21:33.516Z,30.77
2018-07-12T10:23:26.433Z,30.87
2018-07-12T10:24:26.434Z,30.58
2018-07-12T10:26:20.201Z,30.57
2018-07-12T10:27:20.200Z,30.66
2018-07-12T10:29:40.360Z,30.76
2018-07-12T10:30:40.326Z,30.68
2018-07-12T10:32:58.755Z,30.68
2018-07-12T10:33:58.757Z,30.66
2018-07-12T10:35:52.197Z,30.47
2018-07-12T10:36:52.173Z,30.68
2018-07-12T10:38:59.544Z,30.58
2018-07-12T10:39:59.543Z,30.48
2018-07-12T10:41:52.460Z,30.48
2018-07-12T10:42:52.460Z,30.48
2018-07-12T10:44:45.383Z,30.37
2018-07-12T10:45:45.379Z,30.38
2018-07-12T10:47:51.052Z,30.38
2018-07-12T10:48:51.053Z,30.38
2018-07-12T10:50:43.950Z,30.48
2018-07-12T10:51:43.972Z,30.37
2018-07-12T10:53:38.831Z,30.38
2018-07-12T10:54:38.857Z,30.47
2018-07-12T10:56:32.597Z,30.38
2018-07-12T10:57:32.597Z,30.38
2018-07-12T10:59:38.300Z,30.38
2018-07-12T11:00:38.270Z,30.48
2018-07-12T11:02:31.194Z,30.48
2018-07-12T11:03:31.193Z,30.48
2018-07-12T11:05:25.835Z,30.48
2018-07-12T11:06:25.835Z,30.58
2018-07-12T11:08:20.469Z,30.48
2018-07-12T11:09:20.448Z,30.38
2018-07-12T11:11:13.395Z,30.48
2018-07-12T11:12:13.370Z,30.48
2018-07-12T11:14:06.284Z,30.38
2018-07-12T11:15:06.285Z,30.38
2018-07-12T11:17:00.878Z,30.38
2018-07-12T11:18:00.900Z,30.37
2018-07-12T11:19:53.819Z,30.58
2018-07-12T11:20:53.817Z,30.38
2018-07-12T11:22:47.622Z,30.48
2018-07-12T11:23:47.589Z,30.58
2018-07-12T11:25:40.990Z,30.38
2018-07-12T11:26:41.003Z,30.48
2018-07-12T11:28:35.618Z,30.48
2018-07-12T11:29:35.617Z,30.48
2018-07-12T11:31:41.305Z,30.58
2018-07-12T11:32:41.291Z,30.48
2018-07-12T11:34:34.210Z,30.48
2018-07-12T11:35:34.211Z,30.58
2018-07-12T11:37:28.825Z,30.48
2018-07-12T11:38:28.825Z,30.47
2018-07-12T11:40:34.500Z,30.38
2018-07-12T11:41:34.498Z,30.47
2018-07-12T11:43:27.418Z,30.37
2018-07-12T11:44:27.428Z,30.48
2018-07-12T11:46:33.069Z,30.68
2018-07-12T11:47:33.091Z,30.58
2018-07-12T11:49:26.027Z,30.48
2018-07-12T11:50:26.025Z,30.48
2018-07-12T11:52:18.920Z,30.48
2018-07-12T11:53:18.941Z,30.48
2018-07-12T11:55:24.616Z,30.48
2018-07-12T11:56:24.616Z,30.48
2018-07-12T11:58:17.534Z,30.38
2018-07-12T11:59:17.534Z,30.58
2018-07-12T12:01:12.149Z,30.68
2018-07-12T12:02:12.149Z,30.57
2018-07-12T12:04:05.067Z,30.57
2018-07-12T12:05:05.066Z,30.48
2018-07-12T12:06:58.011Z,30.38
2018-07-12T12:07:57.988Z,30.58
2018-07-12T12:09:50.903Z,30.68
2018-07-12T12:10:50.932Z,30.77
2018-07-12T12:12:43.846Z,30.47
2018-07-12T12:13:43.820Z,30.48
2018-07-12T12:15:49.494Z,30.58
2018-07-12T12:16:49.495Z,30.68
2018-07-12T12:18:42.414Z,30.68
2018-07-12T12:19:42.414Z,30.58
2018-07-12T12:21:48.097Z,30.38
2018-07-12T12:22:48.096Z,30.48
2018-07-12T12:24:41.031Z,30.66
2018-07-12T12:25:41.053Z,30.58
2018-07-12T12:27:34.033Z,30.58
2018-07-12T12:28:33.933Z,30.58
2018-07-12T12:30:39.633Z,30.68
2018-07-12T12:31:39.608Z,30.58
2018-07-12T12:33:32.563Z,30.58
2018-07-12T12:34:32.546Z,30.58
2018-07-12T12:36:27.140Z,30.48
2018-07-12T12:37:27.140Z,30.38
2018-07-12T12:39:20.057Z,30.58
2018-07-12T12:40:20.057Z,30.48
2018-07-12T12:42:13.825Z,30.58
2018-07-12T12:43:13.825Z,30.68
2018-07-12T12:45:21.178Z,30.48
2018-07-12T12:46:21.194Z,30.57
2018-07-12T12:48:26.869Z,30.48
2018-07-12T12:49:26.869Z,30.48
2018-07-12T12:51:19.788Z,30.58
2018-07-12T12:52:19.788Z,30.48
2018-07-12T12:54:25.465Z,30.38
2018-07-12T12:55:25.466Z,30.38
2018-07-12T12:57:18.383Z,30.38
2018-07-12T12:58:18.383Z,30.48
2018-07-12T13:00:12.255Z,30.48
2018-07-12T13:01:12.149Z,30.58
2018-07-12T13:03:17.844Z,30.38
2018-07-12T13:04:17.822Z,30.38
2018-07-12T13:06:10.720Z,30.38
2018-07-12T13:07:10.743Z,30.38
2018-07-12T13:09:05.357Z,30.47
2018-07-12T13:10:05.357Z,30.38
2018-07-12T13:12:11.049Z,30.48
2018-07-12T13:13:11.031Z,30.38
2018-07-12T13:15:03.960Z,30.38
2018-07-12T13:16:03.950Z,30.48
2018-07-12T13:18:09.626Z,30.48
2018-07-12T13:19:09.624Z,30.48
2018-07-12T13:21:02.542Z,30.38
2018-07-12T13:22:02.544Z,30.38
2018-07-12T13:23:56.310Z,30.48
2018-07-12T13:24:56.311Z,30.38
2018-07-12T13:26:50.951Z,30.48
2018-07-12T13:27:50.983Z,30.48
2018-07-12T13:29:44.697Z,30.48
2018-07-12T13:30:44.696Z,30.38
2018-07-12T13:32:37.615Z,30.58
2018-07-12T13:33:37.638Z,30.38
2018-07-12T13:35:32.209Z,30.58
2018-07-12T13:36:32.229Z,30.48
2018-07-12T13:38:26.005Z,30.68
2018-07-12T13:39:26.002Z,30.68
2018-07-12T13:41:18.921Z,30.68
2018-07-12T13:42:18.921Z,30.68
2018-07-12T13:44:24.573Z,30.58
2018-07-12T13:45:24.594Z,30.58
2018-07-12T13:47:17.516Z,30.68
2018-07-12T13:48:17.512Z,30.68
2018-07-12T13:50:23.187Z,30.68
2018-07-12T13:51:23.185Z,30.68
2018-07-12T13:53:16.104Z,30.68
2018-07-12T13:54:16.104Z,30.68
2018-07-12T13:56:10.701Z,30.68
2018-07-12T13:57:10.734Z,30.68
2018-07-12T13:59:16.395Z,30.68
2018-07-12T14:00:16.397Z,30.58
2018-07-12T14:02:09.315Z,30.77
2018-07-12T14:03:09.315Z,30.77
2018-07-12T14:05:03.145Z,30.77
2018-07-12T14:06:03.085Z,30.77
2018-07-12T14:08:08.767Z,30.68
2018-07-12T14:09:08.755Z,30.77
2018-07-12T14:11:01.654Z,30.68
2018-07-12T14:12:01.675Z,30.77
2018-07-12T14:14:07.347Z,30.77
2018-07-12T14:15:07.347Z,30.77
2018-07-12T14:17:00.267Z,30.87
2018-07-12T14:18:00.267Z,30.87
2018-07-12T14:19:54.883Z,30.68
2018-07-12T14:20:54.883Z,30.87
2018-07-12T14:23:00.558Z,30.77
2018-07-12T14:24:00.557Z,30.09
2018-07-12T14:25:54.323Z,30.77
2018-07-12T14:26:54.324Z,30.77
2018-07-12T14:28:47.244Z,30.77
2018-07-12T14:29:47.278Z,30.87
2018-07-12T14:31:40.179Z,30.77
2018-07-12T14:32:40.165Z,30.29
2018-07-12T14:34:33.080Z,30.87
2018-07-12T14:35:33.110Z,30.77
2018-07-12T14:37:38.752Z,30.87
2018-07-12T14:38:38.753Z,30.87
2018-07-12T14:40:33.367Z,30.77
2018-07-12T14:41:33.367Z,30.77
2018-07-12T14:43:26.286Z,30.87
2018-07-12T14:44:26.286Z,30.87
2018-07-12T14:46:31.960Z,30.58
2018-07-12T14:47:31.960Z,30.87
2018-07-12T14:49:24.888Z,30.19
2018-07-12T14:50:24.888Z,30.68
2018-07-12T14:52:19.501Z,30.87
2018-07-12T14:53:19.501Z,30.29
2018-07-12T14:55:12.426Z,30.87
2018-07-12T14:56:12.424Z,30.87
2018-07-12T14:58:05.342Z,30.68
2018-07-12T14:59:05.342Z,30.77
2018-07-12T15:01:11.135Z,30.77
2018-07-12T15:02:11.133Z,30.97
2018-07-12T15:04:04.138Z,30.87
2018-07-12T15:05:04.053Z,30.09
2018-07-12T15:06:57.860Z,30.68
2018-07-12T15:07:57.860Z,30.68
2018-07-12T15:09:51.630Z,30.68
2018-07-12T15:10:51.629Z,30.68
2018-07-12T15:12:57.302Z,30.19
2018-07-12T15:13:57.302Z,30.97
2018-07-12T15:15:50.222Z,30.68
2018-07-12T15:16:50.269Z,30.97
2018-07-12T15:18:55.895Z,30.38
2018-07-12T15:19:55.896Z,30.38
2018-07-12T15:22:14.377Z,30.87
2018-07-12T15:23:14.325Z,30.29
2018-07-12T15:25:07.275Z,30.29
2018-07-12T15:26:07.251Z,30.09
2018-07-12T15:28:01.960Z,30.68
2018-07-12T15:29:01.860Z,30.38
2018-07-12T15:30:54.779Z,30.19
2018-07-12T15:31:54.782Z,30.29
2018-07-12T15:33:47.695Z,30.19
2018-07-12T15:34:47.695Z,30.29
2018-07-12T15:36:53.394Z,30.38
2018-07-12T15:37:53.369Z,30.19
2018-07-12T15:39:46.265Z,30.09
2018-07-12T15:40:46.293Z,30.77
2018-07-12T15:42:40.901Z,30.68
2018-07-12T15:43:40.901Z,30.87
2018-07-12T15:45:33.820Z,30.38
2018-07-12T15:46:33.833Z,30.38
2018-07-12T15:48:26.737Z,30.19
2018-07-12T15:49:26.736Z,30.19
2018-07-12T15:51:32.389Z,30.09
2018-07-12T15:52:32.440Z,30.29
2018-07-12T15:54:25.329Z,30.77
2018-07-12T15:55:25.327Z,30.77
2018-07-12T15:57:31.003Z,30.77
2018-07-12T15:58:31.000Z,30.77
2018-07-12T16:00:23.925Z,30.77
2018-07-12T16:01:23.925Z,30.77
2018-07-12T16:03:17.691Z,30.87
2018-07-12T16:04:17.690Z,30.77
2018-07-12T16:06:23.343Z,30.85
2018-07-12T16:07:23.395Z,30.77
2018-07-12T16:09:16.368Z,30.87
2018-07-12T16:10:16.295Z,30.87
2018-07-12T16:12:10.927Z,30.97
2018-07-12T16:13:10.899Z,30.87
2018-07-12T16:15:03.817Z,30.85
2018-07-12T16:16:03.817Z,30.87
2018-07-12T16:17:56.721Z,30.87
2018-07-12T16:18:56.760Z,30.66
2018-07-12T16:21:02.388Z,30.85
2018-07-12T16:22:02.409Z,30.77
2018-07-12T16:23:55.329Z,30.77
2018-07-12T16:24:55.328Z,30.76
2018-07-12T16:26:49.946Z,30.87
2018-07-12T16:27:49.943Z,30.77
2018-07-12T16:29:55.683Z,30.77
2018-07-12T16:30:55.617Z,30.58
2018-07-12T16:32:48.535Z,30.77
2018-07-12T16:33:48.537Z,30.87
2018-07-12T16:35:43.157Z,30.76
2018-07-12T16:36:43.162Z,30.76
2018-07-12T16:38:36.070Z,30.87
2018-07-12T16:39:36.099Z,30.85
2018-07-12T16:41:29.836Z,30.66
2018-07-12T16:42:29.836Z,30.66
2018-07-12T16:44:35.522Z,30.76
2018-07-12T16:45:35.523Z,30.66
2018-07-12T16:47:30.136Z,30.76
2018-07-12T16:48:30.210Z,30.77
2018-07-12T16:50:23.092Z,30.66
2018-07-12T16:51:23.057Z,30.66
2018-07-12T16:53:17.672Z,30.68
2018-07-12T16:54:17.671Z,30.66
2018-07-12T16:56:10.590Z,30.66
2018-07-12T16:57:10.590Z,30.66
2018-07-12T16:59:04.602Z,30.66
2018-07-12T17:00:04.360Z,30.66
2018-07-12T17:02:10.031Z,30.66
2018-07-12T17:03:10.031Z,30.68
2018-07-12T17:05:02.965Z,30.76
2018-07-12T17:06:02.950Z,30.66
2018-07-12T17:07:57.603Z,30.66
2018-07-12T17:08:57.566Z,30.66
2018-07-12T17:11:03.219Z,30.76
2018-07-12T17:12:03.240Z,30.66
2018-07-12T17:13:56.224Z,30.66
2018-07-12T17:14:56.165Z,30.66
2018-07-12T17:16:49.926Z,30.66
2018-07-12T17:17:49.926Z,30.57
2018-07-12T17:19:42.889Z,30.66
2018-07-12T17:20:42.845Z,30.66
2018-07-12T17:22:35.803Z,30.47
2018-07-12T17:23:35.805Z,30.66
2018-07-12T17:25:29.555Z,30.57
2018-07-12T17:26:29.570Z,30.47
2018-07-12T17:28:35.222Z,30.47
2018-07-12T17:29:35.242Z,30.57
2018-07-12T17:31:28.162Z,30.57
2018-07-12T17:32:28.162Z,30.57
2018-07-12T17:34:22.817Z,30.57
2018-07-12T17:35:22.778Z,30.47
2018-07-12T17:37:15.694Z,30.37
2018-07-12T17:38:15.694Z,30.37
2018-07-12T17:40:08.611Z,30.47
2018-07-12T17:41:08.628Z,30.37
2018-07-12T17:43:14.285Z,30.37
2018-07-12T17:44:14.286Z,30.37
2018-07-12T17:46:07.790Z,30.37
2018-07-12T17:47:07.431Z,30.37
2018-07-12T17:49:02.029Z,30.37
2018-07-12T17:50:02.050Z,30.47
2018-07-12T17:52:07.737Z,30.47
2018-07-12T17:53:07.721Z,30.66
2018-07-12T17:55:00.641Z,30.66
2018-07-12T17:56:00.651Z,30.37
2018-07-12T17:57:54.406Z,30.57
2018-07-12T17:58:54.424Z,30.37
2018-07-12T18:00:47.323Z,30.47
2018-07-12T18:01:47.323Z,30.57
2018-07-12T18:03:40.242Z,30.57
2018-07-12T18:04:40.248Z,30.76
2018-07-12T18:06:45.916Z,30.66
2018-07-12T18:07:45.916Z,30.66
2018-07-12T18:09:38.814Z,30.76
2018-07-12T18:10:38.836Z,30.76
2018-07-12T18:12:33.449Z,30.76
2018-07-12T18:13:33.449Z,30.66
2018-07-12T18:15:26.392Z,30.76
2018-07-12T18:16:26.388Z,30.66
2018-07-12T18:18:19.392Z,30.66
2018-07-12T18:19:19.306Z,30.76
2018-07-12T18:21:13.924Z,30.76
2018-07-12T18:22:14.016Z,30.66
2018-07-12T18:24:06.841Z,30.95
2018-07-12T18:25:06.839Z,30.85
2018-07-12T18:26:59.736Z,30.95
2018-07-12T18:27:59.757Z,30.95
2018-07-12T18:30:05.432Z,30.95
2018-07-12T18:31:05.431Z,30.85
2018-07-12T18:32:58.351Z,30.95
2018-07-12T18:33:58.350Z,30.95
2018-07-12T18:36:04.024Z,31.15
2018-07-12T18:37:04.024Z,30.76
2018-07-12T18:38:56.942Z,31.05
2018-07-12T18:39:56.940Z,30.85
2018-07-12T18:41:51.535Z,30.95
2018-07-12T18:42:51.556Z,30.76
2018-07-12T18:44:57.229Z,31.05
2018-07-12T18:45:57.230Z,31.05
2018-07-12T18:47:50.149Z,31.05
2018-07-12T18:48:50.148Z,31.05
2018-07-12T18:50:43.934Z,31.15
2018-07-12T18:51:43.918Z,31.05
2018-07-12T18:53:36.834Z,30.95
2018-07-12T18:54:36.855Z,31.05
2018-07-12T18:56:30.615Z,31.15
2018-07-12T18:57:30.640Z,31.44
2018-07-12T18:59:36.259Z,31.05